sensor_id;sensor_type;location;lat;lon;timestamp;pressure;altitude;pressure_sealevel;temperature;humidity
37486;BME280;23341;50.296;18.960;2023-03-14T00:02:39;45325.44;;;-144.43;58.72
37486;BME280;23341;50.296;18.960;2023-03-14T00:07:45;45307.47;;;-144.43;58.44
37486;BME280;23341;50.296;18.960;2023-03-14T00:12:49;45347.41;;;-144.43;58.71
37486;BME280;23341;50.296;18.960;2023-03-14T00:17:54;45341.41;;;-144.43;58.81
37486;BME280;23341;50.296;18.960;2023-03-14T00:23:00;45351.41;;;-144.43;59.59
37486;BME280;23341;50.296;18.960;2023-03-14T00:28:05;45339.44;;;-144.43;59.56
37486;BME280;23341;50.296;18.960;2023-03-14T00:33:09;45355.41;;;-144.43;59.54
37486;BME280;23341;50.296;18.960;2023-03-14T00:38:15;45339.44;;;-144.43;59.88
37486;BME280;23341;50.296;18.960;2023-03-14T00:43:20;45347.41;;;-144.43;60.04
37486;BME280;23341;50.296;18.960;2023-03-14T00:48:29;45371.38;;;-144.43;59.58
37486;BME280;23341;50.296;18.960;2023-03-14T00:53:37;45359.38;;;-144.43;60.05
37486;BME280;23341;50.296;18.960;2023-03-14T00:58:42;45345.41;;;-144.43;59.60
37486;BME280;23341;50.296;18.960;2023-03-14T01:03:47;45351.41;;;-144.43;60.13
37486;BME280;23341;50.296;18.960;2023-03-14T01:08:53;45355.41;;;-144.43;59.91
37486;BME280;23341;50.296;18.960;2023-03-14T01:13:58;45359.38;;;-144.43;59.34
37486;BME280;23341;50.296;18.960;2023-03-14T01:19:03;45361.38;;;-144.43;59.04
37486;BME280;23341;50.296;18.960;2023-03-14T01:24:12;45357.41;;;-144.43;59.08
37486;BME280;23341;50.296;18.960;2023-03-14T01:29:16;45363.38;;;-144.43;58.63
37486;BME280;23341;50.296;18.960;2023-03-14T01:34:20;45361.38;;;-144.43;58.29
37486;BME280;23341;50.296;18.960;2023-03-14T01:39:26;45355.41;;;-144.43;57.91
37486;BME280;23341;50.296;18.960;2023-03-14T01:44:47;45351.41;;;-144.43;58.53
37486;BME280;23341;50.296;18.960;2023-03-14T01:49:55;45359.38;;;-144.43;58.61
37486;BME280;23341;50.296;18.960;2023-03-14T01:55:04;45379.34;;;-144.43;58.78
37486;BME280;23341;50.296;18.960;2023-03-14T02:00:11;45385.34;;;-144.43;59.14
37486;BME280;23341;50.296;18.960;2023-03-14T02:05:20;45391.34;;;-144.43;58.96
37486;BME280;23341;50.296;18.960;2023-03-14T02:10:47;45371.38;;;-144.43;58.62
37486;BME280;23341;50.296;18.960;2023-03-14T02:15:57;45381.34;;;-144.43;59.33
37486;BME280;23341;50.296;18.960;2023-03-14T02:21:41;45415.28;;;-144.43;59.76
37486;BME280;23341;50.296;18.960;2023-03-14T02:27:12;45399.31;;;-144.43;60.07
37486;BME280;23341;50.296;18.960;2023-03-14T02:32:20;45411.31;;;-144.43;60.48
37486;BME280;23341;50.296;18.960;2023-03-14T02:37:30;45411.31;;;-144.43;62.01
37486;BME280;23341;50.296;18.960;2023-03-14T02:42:39;45429.28;;;-144.43;62.18
37486;BME280;23341;50.296;18.960;2023-03-14T02:47:47;45419.28;;;-144.43;61.88
37486;BME280;23341;50.296;18.960;2023-03-14T02:52:53;45411.31;;;-144.43;60.58
37486;BME280;23341;50.296;18.960;2023-03-14T02:57:59;45375.38;;;-144.43;60.78
37486;BME280;23341;50.296;18.960;2023-03-14T03:03:04;45431.28;;;-144.43;61.23
37486;BME280;23341;50.296;18.960;2023-03-14T03:08:09;45395.31;;;-144.43;61.40
37486;BME280;23341;50.296;18.960;2023-03-14T03:13:16;45435.25;;;-144.43;61.89
37486;BME280;23341;50.296;18.960;2023-03-14T03:18:24;45399.31;;;-144.43;61.42
37486;BME280;23341;50.296;18.960;2023-03-14T03:23:29;45375.38;;;-144.43;61.47
37486;BME280;23341;50.296;18.960;2023-03-14T03:28:35;45397.31;;;-144.43;61.13
37486;BME280;23341;50.296;18.960;2023-03-14T03:33:40;45423.28;;;-144.43;61.48
37486;BME280;23341;50.296;18.960;2023-03-14T03:38:44;45427.28;;;-144.43;59.82
37486;BME280;23341;50.296;18.960;2023-03-14T03:43:50;45391.34;;;-144.43;58.63
37486;BME280;23341;50.296;18.960;2023-03-14T03:48:59;45407.31;;;-144.43;58.88
37486;BME280;23341;50.296;18.960;2023-03-14T03:54:04;45403.31;;;-144.43;59.39
37486;BME280;23341;50.296;18.960;2023-03-14T03:59:10;45379.34;;;-144.43;60.93
37486;BME280;23341;50.296;18.960;2023-03-14T04:04:14;45399.31;;;-144.43;61.07
37486;BME280;23341;50.296;18.960;2023-03-14T04:09:19;45395.31;;;-144.43;61.11
37486;BME280;23341;50.296;18.960;2023-03-14T04:14:41;45407.31;;;-144.43;61.52
37486;BME280;23341;50.296;18.960;2023-03-14T04:19:56;45415.28;;;-144.43;61.80
37486;BME280;23341;50.296;18.960;2023-03-14T04:25:09;45405.31;;;-144.43;62.24
37486;BME280;23341;50.296;18.960;2023-03-14T04:30:20;45421.28;;;-144.43;62.82
37486;BME280;23341;50.296;18.960;2023-03-14T04:35:34;45403.31;;;-144.43;64.16
37486;BME280;23341;50.296;18.960;2023-03-14T04:40:43;45405.31;;;-144.43;64.80
37486;BME280;23341;50.296;18.960;2023-03-14T04:45:50;45437.25;;;-144.43;65.61
37486;BME280;23341;50.296;18.960;2023-03-14T04:50:55;45409.31;;;-144.43;64.39
37486;BME280;23341;50.296;18.960;2023-03-14T04:56:01;45423.28;;;-144.43;63.20
37486;BME280;23341;50.296;18.960;2023-03-14T05:01:13;45417.28;;;-144.43;63.20
37486;BME280;23341;50.296;18.960;2023-03-14T05:06:36;45479.19;;;-144.43;62.48
37486;BME280;23341;50.296;18.960;2023-03-14T05:12:00;45455.22;;;-144.43;62.10
37486;BME280;23341;50.296;18.960;2023-03-14T05:17:12;45475.19;;;-144.43;61.68
37486;BME280;23341;50.296;18.960;2023-03-14T05:22:41;45443.25;;;-144.43;61.58
37486;BME280;23341;50.296;18.960;2023-03-14T05:28:23;45467.22;;;-144.43;62.11
37486;BME280;23341;50.296;18.960;2023-03-14T05:33:43;45435.25;;;-144.43;61.82
37486;BME280;23341;50.296;18.960;2023-03-14T05:39:08;45437.25;;;-144.43;61.52
37486;BME280;23341;50.296;18.960;2023-03-14T05:44:31;45419.28;;;-144.43;60.38
37486;BME280;23341;50.296;18.960;2023-03-14T05:49:56;45423.28;;;-144.43;60.35
37486;BME280;23341;50.296;18.960;2023-03-14T05:55:06;45419.28;;;-144.43;59.79
37486;BME280;23341;50.296;18.960;2023-03-14T06:00:44;45411.31;;;-144.43;59.97
37486;BME280;23341;50.296;18.960;2023-03-14T06:06:16;45413.31;;;-144.43;59.97
37486;BME280;23341;50.296;18.960;2023-03-14T06:11:20;45395.31;;;-144.43;59.64
37486;BME280;23341;50.296;18.960;2023-03-14T06:16:25;45391.34;;;-144.43;59.45
37486;BME280;23341;50.296;18.960;2023-03-14T06:21:31;45407.31;;;-144.43;59.48
37486;BME280;23341;50.296;18.960;2023-03-14T06:26:35;45379.34;;;-144.43;59.38
37486;BME280;23341;50.296;18.960;2023-03-14T06:31:40;45407.31;;;-144.43;60.13
37486;BME280;23341;50.296;18.960;2023-03-14T06:36:46;45419.28;;;-144.43;60.07
37486;BME280;23341;50.296;18.960;2023-03-14T06:41:51;45395.31;;;-144.43;60.28
37486;BME280;23341;50.296;18.960;2023-03-14T06:46:56;45343.41;;;-144.43;59.60
37486;BME280;23341;50.296;18.960;2023-03-14T06:52:02;45371.38;;;-144.43;59.02
37486;BME280;23341;50.296;18.960;2023-03-14T06:57:07;45353.41;;;-144.43;58.95
37486;BME280;23341;50.296;18.960;2023-03-14T07:02:12;45365.38;;;-144.43;59.38
37486;BME280;23341;50.296;18.960;2023-03-14T07:07:19;45363.38;;;-144.43;58.86
37486;BME280;23341;50.296;18.960;2023-03-14T07:12:24;45333.44;;;-144.43;58.49
37486;BME280;23341;50.296;18.960;2023-03-14T07:17:29;45337.44;;;-144.43;58.30
37486;BME280;23341;50.296;18.960;2023-03-14T07:22:35;45351.41;;;-144.43;57.88
37486;BME280;23341;50.296;18.960;2023-03-14T07:27:39;45339.44;;;-144.43;57.84
37486;BME280;23341;50.296;18.960;2023-03-14T07:32:44;45289.50;;;-144.43;56.96
37486;BME280;23341;50.296;18.960;2023-03-14T07:37:50;45291.50;;;-144.43;56.77
37486;BME280;23341;50.296;18.960;2023-03-14T07:43:03;45253.56;;;-144.43;56.07
37486;BME280;23341;50.296;18.960;2023-03-14T07:48:24;45321.44;;;-144.43;56.22
37486;BME280;23341;50.296;18.960;2023-03-14T07:53:31;45275.53;;;-144.43;55.66
37486;BME280;23341;50.296;18.960;2023-03-14T07:58:35;45185.69;;;-144.43;54.04
37486;BME280;23341;50.296;18.960;2023-03-14T08:03:39;45095.84;;;-144.43;50.90
37486;BME280;23341;50.296;18.960;2023-03-14T08:08:45;45233.59;;;-144.43;51.06
37486;BME280;23341;50.296;18.960;2023-03-14T08:13:49;45263.56;;;-144.43;52.89
37486;BME280;23341;50.296;18.960;2023-03-14T08:18:54;45213.63;;;-144.43;53.67
37486;BME280;23341;50.296;18.960;2023-03-14T08:24:01;45161.72;;;-144.43;52.85
37486;BME280;23341;50.296;18.960;2023-03-14T08:29:09;45161.72;;;-144.43;52.44
37486;BME280;23341;50.296;18.960;2023-03-14T08:34:15;45151.75;;;-144.43;51.03
37486;BME280;23341;50.296;18.960;2023-03-14T08:39:21;45091.84;;;-144.43;50.28
37486;BME280;23341;50.296;18.960;2023-03-14T08:44:26;45139.78;;;-144.43;51.20
37486;BME280;23341;50.296;18.960;2023-03-14T08:49:30;45173.72;;;-144.43;51.71
37486;BME280;23341;50.296;18.960;2023-03-14T08:54:36;45213.63;;;-144.43;52.46
37486;BME280;23341;50.296;18.960;2023-03-14T08:59:41;45259.56;;;-144.43;54.09
37486;BME280;23341;50.296;18.960;2023-03-14T09:04:45;45235.59;;;-144.43;54.58
37486;BME280;23341;50.296;18.960;2023-03-14T09:09:51;45247.59;;;-144.43;55.49
37486;BME280;23341;50.296;18.960;2023-03-14T09:14:56;45239.59;;;-144.43;54.71
37486;BME280;23341;50.296;18.960;2023-03-14T09:20:01;45241.59;;;-144.43;54.96
37486;BME280;23341;50.296;18.960;2023-03-14T09:25:10;45259.56;;;-144.43;55.64
37486;BME280;23341;50.296;18.960;2023-03-14T09:30:15;45243.59;;;-144.43;55.75
37486;BME280;23341;50.296;18.960;2023-03-14T09:35:20;45211.66;;;-144.43;56.31
37486;BME280;23341;50.296;18.960;2023-03-14T09:40:31;45167.72;;;-144.43;54.66
37486;BME280;23341;50.296;18.960;2023-03-14T09:45:37;45189.69;;;-144.43;54.08
37486;BME280;23341;50.296;18.960;2023-03-14T09:50:46;45163.72;;;-144.43;54.22
37486;BME280;23341;50.296;18.960;2023-03-14T09:55:54;45077.88;;;-144.43;53.00
37486;BME280;23341;50.296;18.960;2023-03-14T10:01:01;45141.75;;;-144.43;53.20
37486;BME280;23341;50.296;18.960;2023-03-14T10:06:11;45175.72;;;-144.43;54.06
37486;BME280;23341;50.296;18.960;2023-03-14T10:11:17;45173.72;;;-144.43;54.93
37486;BME280;23341;50.296;18.960;2023-03-14T10:16:28;45179.69;;;-144.43;55.17
37486;BME280;23341;50.296;18.960;2023-03-14T10:21:36;45205.66;;;-144.43;55.44
37486;BME280;23341;50.296;18.960;2023-03-14T10:26:43;45243.59;;;-144.43;56.46
37486;BME280;23341;50.296;18.960;2023-03-14T10:31:53;45251.56;;;-144.43;57.48
37486;BME280;23341;50.296;18.960;2023-03-14T10:37:05;45255.56;;;-144.43;58.73
37486;BME280;23341;50.296;18.960;2023-03-14T10:42:19;45253.56;;;-144.43;60.91
37486;BME280;23341;50.296;18.960;2023-03-14T10:47:26;45219.63;;;-144.43;62.69
37486;BME280;23341;50.296;18.960;2023-03-14T10:52:31;45227.63;;;-144.43;62.36
37486;BME280;23341;50.296;18.960;2023-03-14T10:57:57;45201.66;;;-144.43;61.37
37486;BME280;23341;50.296;18.960;2023-03-14T11:03:08;45223.63;;;-144.43;60.75
37486;BME280;23341;50.296;18.960;2023-03-14T11:08:20;45235.59;;;-144.43;61.21
37486;BME280;23341;50.296;18.960;2023-03-14T11:13:33;45243.59;;;-144.43;61.24
37486;BME280;23341;50.296;18.960;2023-03-14T11:19:03;45267.53;;;-144.43;62.52
37486;BME280;23341;50.296;18.960;2023-03-14T11:24:33;45227.63;;;-144.43;65.96
37486;BME280;23341;50.296;18.960;2023-03-14T11:29:53;45243.59;;;-144.43;69.52
37486;BME280;23341;50.296;18.960;2023-03-14T11:35:02;45235.59;;;-144.43;70.54
37486;BME280;23341;50.296;18.960;2023-03-14T11:40:13;45229.63;;;-144.43;72.11
37486;BME280;23341;50.296;18.960;2023-03-14T11:45:23;45199.66;;;-144.43;72.84
37486;BME280;23341;50.296;18.960;2023-03-14T11:50:31;45181.69;;;-144.43;71.30
37486;BME280;23341;50.296;18.960;2023-03-14T11:55:38;45183.69;;;-144.43;70.02
37486;BME280;23341;50.296;18.960;2023-03-14T12:00:47;45183.69;;;-144.43;69.49
37486;BME280;23341;50.296;18.960;2023-03-14T12:06:04;45173.72;;;-144.43;69.53
37486;BME280;23341;50.296;18.960;2023-03-14T12:11:23;45173.72;;;-144.43;69.53
37486;BME280;23341;50.296;18.960;2023-03-14T12:16:36;45215.63;;;-144.43;70.03
37486;BME280;23341;50.296;18.960;2023-03-14T12:21:47;45181.69;;;-144.43;69.62
37486;BME280;23341;50.296;18.960;2023-03-14T12:26:54;45189.69;;;-144.43;70.72
37486;BME280;23341;50.296;18.960;2023-03-14T12:32:22;45189.69;;;-144.43;70.70
37486;BME280;23341;50.296;18.960;2023-03-14T12:37:33;45195.66;;;-144.43;71.32
37486;BME280;23341;50.296;18.960;2023-03-14T12:42:51;45129.78;;;-144.43;72.50
37486;BME280;23341;50.296;18.960;2023-03-14T12:48:08;45119.81;;;-144.43;76.03
37486;BME280;23341;50.296;18.960;2023-03-14T12:59:13;45069.91;;;-144.43;77.87
37486;BME280;23341;50.296;18.960;2023-03-14T13:04:31;45055.91;;;-144.43;77.10
37486;BME280;23341;50.296;18.960;2023-03-14T13:10:03;45059.91;;;-144.43;77.70
37486;BME280;23341;50.296;18.960;2023-03-14T13:15:19;45067.91;;;-144.43;79.22
37486;BME280;23341;50.296;18.960;2023-03-14T13:20:29;45031.97;;;-144.43;81.32
37486;BME280;23341;50.296;18.960;2023-03-14T13:25:35;44978.06;;;-144.43;82.40
37486;BME280;23341;50.296;18.960;2023-03-14T13:30:41;44952.09;;;-144.43;84.50
37486;BME280;23341;50.296;18.960;2023-03-14T13:35:50;44894.22;;;-144.43;84.12
37486;BME280;23341;50.296;18.960;2023-03-14T13:40:59;44908.19;;;-144.43;84.17
37486;BME280;23341;50.296;18.960;2023-03-14T13:46:05;44896.19;;;-144.43;85.07
37486;BME280;23341;50.296;18.960;2023-03-14T13:51:14;44824.34;;;-144.43;87.24
37486;BME280;23341;50.296;18.960;2023-03-14T13:56:21;44730.50;;;-144.43;87.90
37486;BME280;23341;50.296;18.960;2023-03-14T14:01:28;44688.59;;;-144.43;89.41
37486;BME280;23341;50.296;18.960;2023-03-14T14:06:37;44620.72;;;-144.43;90.72
37486;BME280;23341;50.296;18.960;2023-03-14T14:11:43;44488.97;;;-144.43;93.71
37486;BME280;23341;50.296;18.960;2023-03-14T14:17:12;44357.22;;;-144.43;96.21
37486;BME280;23341;50.296;18.960;2023-03-14T14:22:19;44259.41;;;-144.43;99.54
37486;BME280;23341;50.296;18.960;2023-03-14T14:27:28;44131.66;;;-144.43;100.00
37486;BME280;23341;50.296;18.960;2023-03-14T14:32:36;44115.69;;;-144.43;100.00
37486;BME280;23341;50.296;18.960;2023-03-14T14:37:43;44035.84;;;-144.43;100.00
37486;BME280;23341;50.296;18.960;2023-03-14T14:42:49;44045.84;;;-144.43;100.00
37486;BME280;23341;50.296;18.960;2023-03-14T14:47:55;43989.94;;;-144.43;100.00
37486;BME280;23341;50.296;18.960;2023-03-14T14:53:20;44005.91;;;-144.43;100.00
37486;BME280;23341;50.296;18.960;2023-03-14T14:58:28;43970.00;;;-144.43;100.00
37486;BME280;23341;50.296;18.960;2023-03-14T15:03:34;43989.94;;;-144.43;99.66
37486;BME280;23341;50.296;18.960;2023-03-14T15:08:40;44013.91;;;-144.43;99.46
37486;BME280;23341;50.296;18.960;2023-03-14T15:13:45;43977.97;;;-144.43;99.23
37486;BME280;23341;50.296;18.960;2023-03-14T15:18:52;43930.06;;;-144.43;100.00
37486;BME280;23341;50.296;18.960;2023-03-14T15:23:59;43942.06;;;-144.43;99.61
37486;BME280;23341;50.296;18.960;2023-03-14T15:29:03;43946.03;;;-144.43;99.44
37486;BME280;23341;50.296;18.960;2023-03-14T15:34:10;43902.13;;;-144.43;99.16
37486;BME280;23341;50.296;18.960;2023-03-14T15:39:16;43890.16;;;-144.43;98.72
37486;BME280;23341;50.296;18.960;2023-03-14T15:44:21;43922.09;;;-144.43;98.13
37486;BME280;23341;50.296;18.960;2023-03-14T15:49:25;43862.22;;;-144.43;98.73
37486;BME280;23341;50.296;18.960;2023-03-14T15:54:31;43872.19;;;-144.43;99.36
37486;BME280;23341;50.296;18.960;2023-03-14T15:59:36;43876.19;;;-144.43;99.12
37486;BME280;23341;50.296;18.960;2023-03-14T16:04:40;43842.25;;;-144.43;97.57
37486;BME280;23341;50.296;18.960;2023-03-14T16:09:46;43878.19;;;-144.43;97.93
37486;BME280;23341;50.296;18.960;2023-03-14T16:14:50;43832.28;;;-144.43;96.62
37486;BME280;23341;50.296;18.960;2023-03-14T16:19:54;43874.19;;;-144.43;96.36
37486;BME280;23341;50.296;18.960;2023-03-14T16:25:01;43846.25;;;-144.43;95.28
37486;BME280;23341;50.296;18.960;2023-03-14T16:30:06;43840.25;;;-144.43;97.08
37486;BME280;23341;50.296;18.960;2023-03-14T16:35:11;43820.31;;;-144.43;95.83
37486;BME280;23341;50.296;18.960;2023-03-14T16:40:17;43788.38;;;-144.43;97.11
37486;BME280;23341;50.296;18.960;2023-03-14T16:45:22;43800.34;;;-144.43;96.99
37486;BME280;23341;50.296;18.960;2023-03-14T16:50:26;43664.63;;;-144.43;98.82
37486;BME280;23341;50.296;18.960;2023-03-14T16:55:31;43560.84;;;-144.43;100.00
37486;BME280;23341;50.296;18.960;2023-03-14T17:00:36;43499.00;;;-144.43;100.00
37486;BME280;23341;50.296;18.960;2023-03-14T17:05:44;43439.13;;;-144.43;100.00
37486;BME280;23341;50.296;18.960;2023-03-14T17:10:51;43319.38;;;-144.43;100.00
37486;BME280;23341;50.296;18.960;2023-03-14T17:15:57;43273.47;;;-144.43;100.00
37486;BME280;23341;50.296;18.960;2023-03-14T17:21:02;43199.66;;;-144.43;100.00
37486;BME280;23341;50.296;18.960;2023-03-14T17:26:08;43187.69;;;-144.43;100.00
37486;BME280;23341;50.296;18.960;2023-03-14T17:31:16;43153.75;;;-144.43;100.00
37486;BME280;23341;50.296;18.960;2023-03-14T17:36:21;43121.81;;;-144.43;100.00
37486;BME280;23341;50.296;18.960;2023-03-14T17:41:29;43067.94;;;-144.43;100.00
37486;BME280;23341;50.296;18.960;2023-03-14T17:46:34;43069.94;;;-144.43;100.00
37486;BME280;23341;50.296;18.960;2023-03-14T17:51:38;43044.00;;;-144.43;100.00
37486;BME280;23341;50.296;18.960;2023-03-14T17:56:44;43020.06;;;-144.43;100.00
37486;BME280;23341;50.296;18.960;2023-03-14T18:01:51;43024.06;;;-144.43;100.00
37486;BME280;23341;50.296;18.960;2023-03-14T18:06:55;42992.13;;;-144.43;100.00
37486;BME280;23341;50.296;18.960;2023-03-14T18:12:01;42956.22;;;-144.43;100.00
37486;BME280;23341;50.296;18.960;2023-03-14T18:17:10;42932.25;;;-144.43;100.00
37486;BME280;23341;50.296;18.960;2023-03-14T18:22:18;42944.22;;;-144.43;100.00
37486;BME280;23341;50.296;18.960;2023-03-14T18:27:24;42934.25;;;-144.43;100.00
37486;BME280;23341;50.296;18.960;2023-03-14T18:32:28;42978.16;;;-144.43;100.00
37486;BME280;23341;50.296;18.960;2023-03-14T18:37:33;43004.09;;;-144.43;100.00
37486;BME280;23341;50.296;18.960;2023-03-14T18:42:39;43012.06;;;-144.43;100.00
37486;BME280;23341;50.296;18.960;2023-03-14T18:47:44;43032.03;;;-144.43;100.00
37486;BME280;23341;50.296;18.960;2023-03-14T18:52:48;43044.00;;;-144.43;100.00
37486;BME280;23341;50.296;18.960;2023-03-14T18:57:54;43050.00;;;-144.43;100.00
37486;BME280;23341;50.296;18.960;2023-03-14T19:02:59;43079.91;;;-144.43;100.00
37486;BME280;23341;50.296;18.960;2023-03-14T19:08:04;43087.91;;;-144.43;99.58
37486;BME280;23341;50.296;18.960;2023-03-14T19:13:10;43125.81;;;-144.43;99.16
37486;BME280;23341;50.296;18.960;2023-03-14T19:18:14;43163.72;;;-144.43;99.49
37486;BME280;23341;50.296;18.960;2023-03-14T19:23:19;43207.63;;;-144.43;97.13
37486;BME280;23341;50.296;18.960;2023-03-14T19:28:28;43203.63;;;-144.43;97.89
37486;BME280;23341;50.296;18.960;2023-03-14T19:33:33;43223.59;;;-144.43;97.59
37486;BME280;23341;50.296;18.960;2023-03-14T19:38:38;43199.66;;;-144.43;97.80
37486;BME280;23341;50.296;18.960;2023-03-14T19:43:44;43227.59;;;-144.43;97.50
37486;BME280;23341;50.296;18.960;2023-03-14T19:48:49;43227.59;;;-144.43;97.64
37486;BME280;23341;50.296;18.960;2023-03-14T19:53:56;43259.50;;;-144.43;96.54
37486;BME280;23341;50.296;18.960;2023-03-14T19:59:06;43263.50;;;-144.43;97.53
37486;BME280;23341;50.296;18.960;2023-03-14T20:04:10;43297.44;;;-144.43;96.92
37486;BME280;23341;50.296;18.960;2023-03-14T20:09:16;43295.44;;;-144.43;96.29
37486;BME280;23341;50.296;18.960;2023-03-14T20:14:22;43283.47;;;-144.43;95.72
37486;BME280;23341;50.296;18.960;2023-03-14T20:19:27;43341.34;;;-144.43;94.49
37486;BME280;23341;50.296;18.960;2023-03-14T20:24:31;43361.28;;;-144.43;93.82
37486;BME280;23341;50.296;18.960;2023-03-14T20:29:37;43337.34;;;-144.43;93.82
37486;BME280;23341;50.296;18.960;2023-03-14T20:34:41;43411.19;;;-144.43;93.56
37486;BME280;23341;50.296;18.960;2023-03-14T20:39:45;43371.28;;;-144.43;93.58
37486;BME280;23341;50.296;18.960;2023-03-14T20:44:51;43399.22;;;-144.43;93.90
37486;BME280;23341;50.296;18.960;2023-03-14T20:49:57;43381.25;;;-144.43;94.44
37486;BME280;23341;50.296;18.960;2023-03-14T20:55:03;43381.25;;;-144.43;95.27
37486;BME280;23341;50.296;18.960;2023-03-14T21:00:11;43367.28;;;-144.43;95.78
37486;BME280;23341;50.296;18.960;2023-03-14T21:05:17;43357.31;;;-144.43;95.77
37486;BME280;23341;50.296;18.960;2023-03-14T21:10:21;43323.38;;;-144.43;96.33
37486;BME280;23341;50.296;18.960;2023-03-14T21:15:28;43299.44;;;-144.43;97.42
37486;BME280;23341;50.296;18.960;2023-03-14T21:20:33;43315.41;;;-144.43;97.04
37486;BME280;23341;50.296;18.960;2023-03-14T21:25:38;43277.47;;;-144.43;97.67
37486;BME280;23341;50.296;18.960;2023-03-14T21:30:47;43271.50;;;-144.43;97.46
37486;BME280;23341;50.296;18.960;2023-03-14T21:35:52;43311.41;;;-144.43;97.59
37486;BME280;23341;50.296;18.960;2023-03-14T21:40:56;43285.47;;;-144.43;97.36
37486;BME280;23341;50.296;18.960;2023-03-14T21:46:02;43301.41;;;-144.43;97.41
37486;BME280;23341;50.296;18.960;2023-03-14T21:51:07;43293.44;;;-144.43;97.52
37486;BME280;23341;50.296;18.960;2023-03-14T21:56:11;43299.44;;;-144.43;97.61
37486;BME280;23341;50.296;18.960;2023-03-14T22:01:17;43279.47;;;-144.43;97.46
37486;BME280;23341;50.296;18.960;2023-03-14T22:06:22;43281.47;;;-144.43;97.90
37486;BME280;23341;50.296;18.960;2023-03-14T22:11:26;43251.53;;;-144.43;98.06
37486;BME280;23341;50.296;18.960;2023-03-14T22:16:32;43251.53;;;-144.43;97.50
37486;BME280;23341;50.296;18.960;2023-03-14T22:21:36;43225.59;;;-144.43;98.02
37486;BME280;23341;50.296;18.960;2023-03-14T22:26:40;43225.59;;;-144.43;98.21
37486;BME280;23341;50.296;18.960;2023-03-14T22:31:47;43349.31;;;-144.43;95.44
37486;BME280;23341;50.296;18.960;2023-03-14T22:36:51;43453.09;;;-144.43;95.33
37486;BME280;23341;50.296;18.960;2023-03-14T22:41:55;43427.16;;;-144.43;99.68
37486;BME280;23341;50.296;18.960;2023-03-14T22:47:02;43329.38;;;-144.43;100.00
37486;BME280;23341;50.296;18.960;2023-03-14T22:52:06;43405.19;;;-144.43;100.00
37486;BME280;23341;50.296;18.960;2023-03-14T22:57:11;43411.19;;;-144.43;100.00
37486;BME280;23341;50.296;18.960;2023-03-14T23:02:17;43351.31;;;-144.43;100.00
37486;BME280;23341;50.296;18.960;2023-03-14T23:07:21;43331.34;;;-144.43;100.00
37486;BME280;23341;50.296;18.960;2023-03-14T23:12:26;43315.41;;;-144.43;100.00
37486;BME280;23341;50.296;18.960;2023-03-14T23:17:31;43387.22;;;-144.43;100.00
37486;BME280;23341;50.296;18.960;2023-03-14T23:22:36;43419.16;;;-144.43;100.00
37486;BME280;23341;50.296;18.960;2023-03-14T23:27:41;43467.06;;;-144.43;100.00
37486;BME280;23341;50.296;18.960;2023-03-14T23:32:49;43423.16;;;-144.43;100.00
37486;BME280;23341;50.296;18.960;2023-03-14T23:37:53;43407.19;;;-144.43;100.00
37486;BME280;23341;50.296;18.960;2023-03-14T23:42:57;43411.19;;;-144.43;100.00
37486;BME280;23341;50.296;18.960;2023-03-14T23:48:04;43399.22;;;-144.43;100.00
37486;BME280;23341;50.296;18.960;2023-03-14T23:53:09;43367.28;;;-144.43;100.00
37486;BME280;23341;50.296;18.960;2023-03-14T23:58:13;43385.25;;;-144.43;100.00
